createdAt,value
2017-10-29T00:00:16.100Z,74.50
2017-10-29T00:05:44.272Z,74.90
2017-10-29T00:11:12.439Z,75.60
2017-10-29T00:16:40.572Z,76.00
2017-10-29T00:22:08.776Z,76.30
2017-10-29T00:27:37.853Z,76.70
2017-10-29T00:33:06.002Z,76.80
2017-10-29T00:38:34.161Z,76.80
2017-10-29T00:44:02.314Z,77.00
2017-10-29T00:49:30.553Z,77.40
2017-10-29T00:54:58.701Z,77.50
2017-10-29T01:00:26.846Z,77.90
2017-10-29T01:05:55.738Z,77.90
2017-10-29T01:11:23.877Z,77.90
2017-10-29T01:16:52.764Z,77.30
2017-10-29T01:22:20.892Z,77.30
2017-10-29T01:28:04.246Z,77.40
2017-10-29T01:33:33.177Z,77.60
2017-10-29T01:39:01.342Z,77.60
2017-10-29T01:44:29.524Z,77.70
2017-10-29T01:49:57.826Z,77.80
2017-10-29T01:55:27.042Z,77.80
2017-10-29T02:00:55.243Z,78.00
2017-10-29T02:06:23.415Z,78.00
2017-10-29T02:11:52.291Z,78.30
2017-10-29T02:17:20.435Z,78.30
2017-10-29T02:22:48.659Z,78.40
2017-10-29T02:28:16.834Z,78.10
2017-10-29T02:33:45.210Z,78.20
2017-10-29T02:39:20.030Z,78.40
2017-10-29T02:44:48.223Z,78.00
2017-10-29T02:50:16.402Z,77.50
2017-10-29T02:55:45.358Z,76.90
2017-10-29T03:01:13.518Z,76.80
2017-10-29T03:06:41.674Z,76.50
2017-10-29T03:12:09.821Z,75.90
2017-10-29T03:17:38.041Z,74.90
2017-10-29T03:23:06.317Z,73.80
2017-10-29T03:28:37.447Z,72.80
2017-10-29T03:34:05.577Z,72.80
2017-10-29T03:39:34.546Z,71.30
2017-10-29T03:45:03.472Z,70.30
2017-10-29T03:50:31.648Z,70.10
2017-10-29T03:55:59.816Z,69.10
2017-10-29T04:01:27.948Z,68.10
2017-10-29T04:06:56.093Z,66.70
2017-10-29T04:12:24.212Z,65.40
2017-10-29T04:17:53.114Z,63.00
2017-10-29T04:23:21.239Z,63.00
2017-10-29T04:28:51.156Z,61.70
2017-10-29T04:34:20.026Z,61.10
2017-10-29T04:39:48.933Z,60.80
2017-10-29T04:45:17.083Z,60.80
2017-10-29T04:50:45.232Z,60.30
2017-10-29T04:56:13.362Z,59.90
2017-10-29T05:01:41.527Z,59.80
2017-10-29T05:07:11.203Z,59.60
2017-10-29T05:12:39.329Z,59.60
2017-10-29T05:18:07.481Z,59.40
2017-10-29T05:23:35.613Z,58.40
2017-10-29T05:29:09.403Z,58.50
2017-10-29T05:34:38.518Z,58.50
2017-10-29T05:40:06.680Z,58.90
2017-10-29T05:45:34.880Z,58.90
2017-10-29T05:51:03.042Z,58.90
2017-10-29T05:56:32.000Z,59.50
2017-10-29T06:02:00.164Z,59.50
2017-10-29T06:07:28.384Z,60.20
2017-10-29T06:12:56.549Z,60.80
2017-10-29T06:18:24.708Z,62.40
2017-10-29T06:23:52.877Z,63.40
2017-10-29T06:29:21.035Z,64.60
2017-10-29T06:34:49.571Z,64.40
2017-10-29T06:40:17.724Z,64.80
2017-10-29T06:45:46.645Z,66.10
2017-10-29T06:51:25.631Z,66.10
2017-10-29T06:56:53.788Z,65.60
2017-10-29T07:02:21.917Z,65.90
2017-10-29T07:07:50.064Z,65.80
2017-10-29T07:13:33.983Z,66.00
2017-10-29T07:19:02.156Z,66.00
2017-10-29T07:24:31.091Z,65.60
2017-10-29T07:29:59.661Z,65.60
2017-10-29T07:35:28.817Z,65.50
2017-10-29T07:40:56.970Z,65.30
2017-10-29T07:46:26.142Z,65.30
2017-10-29T07:51:54.322Z,65.40
2017-10-29T07:57:25.376Z,65.50
2017-10-29T08:02:54.328Z,66.10
2017-10-29T08:08:22.509Z,65.90
2017-10-29T08:13:52.077Z,66.90
2017-10-29T08:19:20.215Z,66.80
2017-10-29T08:24:59.680Z,66.70
2017-10-29T08:30:28.836Z,66.00
2017-10-29T08:35:58.113Z,65.90
2017-10-29T08:41:31.402Z,65.90
2017-10-29T08:47:01.715Z,66.00
2017-10-29T08:52:29.923Z,66.00
2017-10-29T08:57:58.175Z,66.10
2017-10-29T09:03:26.522Z,66.30
2017-10-29T09:08:56.714Z,66.80
2017-10-29T09:14:24.908Z,67.30
2017-10-29T09:19:53.932Z,67.80
2017-10-29T09:25:22.077Z,67.60
2017-10-29T09:30:50.243Z,67.70
2017-10-29T09:36:19.353Z,67.90
2017-10-29T09:41:48.717Z,68.20
2017-10-29T09:47:16.889Z,68.00
2017-10-29T09:52:47.837Z,68.90
2017-10-29T09:58:16.194Z,69.90
2017-10-29T10:03:44.557Z,70.90
2017-10-29T10:09:20.211Z,71.80
2017-10-29T10:14:48.559Z,71.70
2017-10-29T10:20:16.718Z,71.60
2017-10-29T10:25:44.870Z,71.60
2017-10-29T10:31:13.771Z,73.20
2017-10-29T10:36:47.595Z,73.20
2017-10-29T10:42:15.761Z,74.70
2017-10-29T10:47:43.909Z,75.40
2017-10-29T10:53:12.059Z,77.10
2017-10-29T10:58:40.210Z,77.80
2017-10-29T11:04:09.480Z,78.10
2017-10-29T11:09:45.700Z,78.60
2017-10-29T11:15:13.916Z,79.50
2017-10-29T11:20:42.040Z,79.40
2017-10-29T11:26:17.446Z,79.80
2017-10-29T11:31:45.593Z,80.10
2017-10-29T11:37:21.343Z,78.90
2017-10-29T11:42:54.024Z,78.90
2017-10-29T11:48:22.303Z,78.30
2017-10-29T11:53:55.722Z,78.00
2017-10-29T11:59:24.637Z,77.50
2017-10-29T12:04:53.007Z,77.40
2017-10-29T12:10:25.784Z,76.70
2017-10-29T12:15:54.002Z,75.60
2017-10-29T12:21:22.131Z,75.50
2017-10-29T12:26:50.386Z,75.30
2017-10-29T12:32:19.131Z,74.60
2017-10-29T12:37:48.236Z,75.00
2017-10-29T12:43:18.439Z,74.90
2017-10-29T12:48:47.394Z,73.50
2017-10-29T12:54:20.475Z,73.50
2017-10-29T12:59:48.997Z,72.80
2017-10-29T13:05:21.137Z,72.40
2017-10-29T13:10:50.256Z,72.70
2017-10-29T13:16:23.585Z,72.70
2017-10-29T13:21:52.797Z,72.80
2017-10-29T13:27:20.943Z,72.70
2017-10-29T13:32:50.079Z,73.10
2017-10-29T13:38:18.228Z,73.20
2017-10-29T13:43:46.498Z,73.20
2017-10-29T13:49:19.615Z,73.40
2017-10-29T13:54:52.615Z,73.80
2017-10-29T14:00:20.905Z,73.80
2017-10-29T14:05:49.137Z,73.70
2017-10-29T14:11:20.452Z,73.60
2017-10-29T14:16:57.945Z,73.50
2017-10-29T14:22:26.770Z,73.50
2017-10-29T14:27:55.683Z,73.50
2017-10-29T14:33:23.806Z,73.40
2017-10-29T14:38:52.730Z,73.40
2017-10-29T14:44:32.037Z,73.40
2017-10-29T14:50:00.285Z,73.50
2017-10-29T14:55:29.530Z,73.50
2017-10-29T15:01:02.623Z,73.40
2017-10-29T15:06:31.124Z,73.40
2017-10-29T15:12:01.253Z,73.40
2017-10-29T15:17:30.368Z,73.40
2017-10-29T15:22:58.542Z,73.10
2017-10-29T15:28:30.873Z,72.80
2017-10-29T15:34:09.474Z,72.40
2017-10-29T15:39:46.439Z,72.60
2017-10-29T15:45:30.538Z,72.60
2017-10-29T15:50:58.846Z,72.80
2017-10-29T15:56:27.266Z,72.70
2017-10-29T16:01:56.636Z,72.20
2017-10-29T16:07:24.864Z,72.10
2017-10-29T16:13:05.482Z,71.60
2017-10-29T16:18:36.583Z,71.20
2017-10-29T16:24:19.467Z,71.10
2017-10-29T16:29:48.590Z,71.10
2017-10-29T16:35:20.805Z,71.50
2017-10-29T16:40:49.896Z,70.70
2017-10-29T16:46:18.042Z,70.60
2017-10-29T16:51:46.190Z,70.70
2017-10-29T16:57:14.326Z,71.00
2017-10-29T17:02:42.539Z,71.60
2017-10-29T17:08:10.738Z,71.80
2017-10-29T17:13:38.932Z,71.90
2017-10-29T17:19:07.080Z,71.80
2017-10-29T17:24:35.248Z,71.50
2017-10-29T17:30:04.340Z,71.30
2017-10-29T17:35:32.510Z,71.10
2017-10-29T17:41:02.627Z,71.00
2017-10-29T17:46:30.919Z,70.60
2017-10-29T17:51:59.092Z,70.50
2017-10-29T17:57:27.315Z,70.70
2017-10-29T18:03:00.472Z,71.70
2017-10-29T18:08:29.657Z,71.60
2017-10-29T18:13:58.898Z,72.00
2017-10-29T18:19:27.031Z,72.10
2017-10-29T18:24:56.889Z,72.00
2017-10-29T18:30:29.474Z,72.00
2017-10-29T18:35:58.395Z,71.60
2017-10-29T18:41:28.532Z,70.90
2017-10-29T18:46:56.671Z,71.10
2017-10-29T18:52:28.293Z,70.00
2017-10-29T18:57:59.467Z,68.70
2017-10-29T19:03:27.630Z,68.70
2017-10-29T19:08:55.792Z,68.10
2017-10-29T19:14:24.946Z,67.10
2017-10-29T19:19:53.161Z,67.50
2017-10-29T19:25:21.324Z,67.40
2017-10-29T19:30:49.529Z,67.30
2017-10-29T19:36:23.732Z,67.10
2017-10-29T19:41:51.853Z,67.20
2017-10-29T19:47:24.120Z,67.20
2017-10-29T19:52:52.246Z,67.20
2017-10-29T19:58:20.379Z,67.10
2017-10-29T20:03:49.332Z,67.20
2017-10-29T20:09:24.497Z,67.20
2017-10-29T20:14:54.635Z,67.20
2017-10-29T20:20:22.747Z,67.20
2017-10-29T20:25:51.890Z,67.30
2017-10-29T20:31:20.059Z,67.30
2017-10-29T20:36:48.193Z,67.30
2017-10-29T20:42:16.326Z,67.30
2017-10-29T20:47:49.356Z,67.20
2017-10-29T20:53:17.487Z,67.40
2017-10-29T20:58:46.272Z,67.80
2017-10-29T21:04:16.368Z,67.50
2017-10-29T21:09:45.422Z,67.60
2017-10-29T21:15:13.551Z,67.50
2017-10-29T21:20:42.444Z,67.60
2017-10-29T21:26:11.526Z,67.60
2017-10-29T21:31:39.647Z,67.70
2017-10-29T21:37:09.464Z,67.80
2017-10-29T21:42:37.598Z,67.80
2017-10-29T21:48:06.524Z,68.10
2017-10-29T21:53:41.314Z,68.00
2017-10-29T21:59:09.496Z,68.10
2017-10-29T22:04:37.630Z,68.10
2017-10-29T22:10:05.769Z,68.20
2017-10-29T22:15:34.668Z,68.50
2017-10-29T22:21:03.914Z,68.50
2017-10-29T22:26:33.059Z,69.10
2017-10-29T22:32:03.263Z,69.00
2017-10-29T22:37:31.994Z,69.40
2017-10-29T22:43:00.162Z,69.60
2017-10-29T22:48:28.325Z,69.80
2017-10-29T22:54:02.649Z,70.10
2017-10-29T22:59:31.819Z,70.30
2017-10-29T23:05:10.876Z,70.60
2017-10-29T23:10:39.021Z,71.50
2017-10-29T23:16:07.163Z,71.10
2017-10-29T23:21:35.427Z,71.20
2017-10-29T23:27:06.826Z,71.30
2017-10-29T23:32:34.964Z,71.40
2017-10-29T23:38:03.893Z,71.90
2017-10-29T23:43:32.084Z,71.80
2017-10-29T23:49:00.249Z,71.90
2017-10-29T23:54:32.863Z,72.10
